Terminal Aerodrome Forecast
Issued by NWS

Home | Current Version | Previous Version | Text Only | Print | Product List | Glossary On
Versions: 1 2 3 4 5 6 7 8 9 10 11 12 13 14 15 16 17 18 19 20 21 22 23
000
FTUS46 KMTR 261700
TAFSFO
TAF
KSFO 261720Z 2618/2724 15003KT P6SM FEW025 SCT200
     FM262000 09004KT P6SM SCT250
     FM262300 31004KT P6SM SCT250
     FM271100 15005KT P6SM SCT250
     FM272000 28007KT P6SM SCT250=

USA.gov is the U.S. government's official web portal to all federal, state and local government web resources and services.